sensor_id;sensor_type;location;lat;lon;timestamp;pressure;altitude;pressure_sealevel;temperature;humidity
4133;BME280;2080;51.038;7.008;2022-08-19T00:00:30;74848.41;;;-142.53;100.00
4133;BME280;2080;51.038;7.008;2022-08-19T00:02:56;74846.47;;;-142.53;100.00
4133;BME280;2080;51.038;7.008;2022-08-19T00:05:22;74852.28;;;-142.53;100.00
4133;BME280;2080;51.038;7.008;2022-08-19T00:07:49;74867.81;;;-142.53;100.00
4133;BME280;2080;51.038;7.008;2022-08-19T00:10:17;74875.59;;;-142.53;100.00
4133;BME280;2080;51.038;7.008;2022-08-19T00:12:43;74883.34;;;-142.53;100.00
4133;BME280;2080;51.038;7.008;2022-08-19T00:15:12;74883.34;;;-142.53;100.00
4133;BME280;2080;51.038;7.008;2022-08-19T00:17:42;74887.22;;;-142.53;100.00
4133;BME280;2080;51.038;7.008;2022-08-19T00:20:09;74895.00;;;-142.53;100.00
4133;BME280;2080;51.038;7.008;2022-08-19T00:22:36;74889.19;;;-142.53;100.00
4133;BME280;2080;51.038;7.008;2022-08-19T00:25:07;74883.34;;;-142.53;100.00
4133;BME280;2080;51.038;7.008;2022-08-19T00:27:35;74893.06;;;-142.53;100.00
4133;BME280;2080;51.038;7.008;2022-08-19T00:30:00;74898.88;;;-142.53;100.00
4133;BME280;2080;51.038;7.008;2022-08-19T00:32:28;74904.72;;;-142.53;100.00
4133;BME280;2080;51.038;7.008;2022-08-19T00:34:56;74918.28;;;-142.53;100.00
4133;BME280;2080;51.038;7.008;2022-08-19T00:37:23;74922.19;;;-142.53;100.00
4133;BME280;2080;51.038;7.008;2022-08-19T00:39:54;74922.19;;;-142.53;100.00
4133;BME280;2080;51.038;7.008;2022-08-19T00:42:23;74922.19;;;-142.53;100.00
4133;BME280;2080;51.038;7.008;2022-08-19T00:44:50;74929.94;;;-142.53;100.00
4133;BME280;2080;51.038;7.008;2022-08-19T00:47:16;74931.88;;;-142.53;100.00
4133;BME280;2080;51.038;7.008;2022-08-19T00:49:45;74933.81;;;-142.53;100.00
4133;BME280;2080;51.038;7.008;2022-08-19T00:52:22;74928.00;;;-142.53;100.00
4133;BME280;2080;51.038;7.008;2022-08-19T00:54:56;74931.88;;;-142.53;100.00
4133;BME280;2080;51.038;7.008;2022-08-19T00:57:35;74941.59;;;-142.53;100.00
4133;BME280;2080;51.038;7.008;2022-08-19T01:00:07;74957.13;;;-142.53;100.00
4133;BME280;2080;51.038;7.008;2022-08-19T01:02:35;74953.25;;;-142.53;100.00
4133;BME280;2080;51.038;7.008;2022-08-19T01:05:04;74961.00;;;-142.53;100.00
4133;BME280;2080;51.038;7.008;2022-08-19T01:07:30;74953.25;;;-142.53;100.00
4133;BME280;2080;51.038;7.008;2022-08-19T01:09:56;74961.00;;;-142.53;100.00
4133;BME280;2080;51.038;7.008;2022-08-19T01:12:24;74972.66;;;-142.53;100.00
4133;BME280;2080;51.038;7.008;2022-08-19T01:14:50;74976.53;;;-142.53;100.00
4133;BME280;2080;51.038;7.008;2022-08-19T01:17:16;74968.78;;;-142.53;100.00
4133;BME280;2080;51.038;7.008;2022-08-19T01:19:43;74949.38;;;-142.53;100.00
4133;BME280;2080;51.038;7.008;2022-08-19T01:22:25;74964.88;;;-142.53;100.00
4133;BME280;2080;51.038;7.008;2022-08-19T01:24:52;74980.41;;;-142.53;100.00
4133;BME280;2080;51.038;7.008;2022-08-19T01:27:19;74980.41;;;-142.53;100.00
4133;BME280;2080;51.038;7.008;2022-08-19T01:29:45;74980.41;;;-142.53;100.00
4133;BME280;2080;51.038;7.008;2022-08-19T01:32:16;74972.66;;;-142.53;100.00
4133;BME280;2080;51.038;7.008;2022-08-19T01:34:44;74968.78;;;-142.53;100.00
4133;BME280;2080;51.038;7.008;2022-08-19T01:37:13;74976.53;;;-142.53;100.00
4133;BME280;2080;51.038;7.008;2022-08-19T01:39:40;74984.31;;;-142.53;100.00
4133;BME280;2080;51.038;7.008;2022-08-19T01:42:07;74984.31;;;-142.53;100.00
4133;BME280;2080;51.038;7.008;2022-08-19T01:44:36;74992.06;;;-142.53;100.00
4133;BME280;2080;51.038;7.008;2022-08-19T01:47:02;74995.97;;;-142.53;100.00
4133;BME280;2080;51.038;7.008;2022-08-19T01:49:29;74988.19;;;-142.53;100.00
4133;BME280;2080;51.038;7.008;2022-08-19T01:51:58;74976.53;;;-142.53;100.00
4133;BME280;2080;51.038;7.008;2022-08-19T01:54:24;74972.66;;;-142.53;100.00
4133;BME280;2080;51.038;7.008;2022-08-19T01:56:51;74974.59;;;-142.53;100.00
4133;BME280;2080;51.038;7.008;2022-08-19T01:59:21;74990.13;;;-142.53;100.00
4133;BME280;2080;51.038;7.008;2022-08-19T02:01:48;75003.72;;;-142.53;100.00
4133;BME280;2080;51.038;7.008;2022-08-19T02:04:13;75007.59;;;-142.53;100.00
4133;BME280;2080;51.038;7.008;2022-08-19T02:06:39;74999.84;;;-142.53;100.00
4133;BME280;2080;51.038;7.008;2022-08-19T02:09:06;75005.66;;;-142.53;100.00
4133;BME280;2080;51.038;7.008;2022-08-19T02:11:38;75003.72;;;-142.53;100.00
4133;BME280;2080;51.038;7.008;2022-08-19T02:14:07;75003.72;;;-142.53;100.00
4133;BME280;2080;51.038;7.008;2022-08-19T02:16:33;75015.38;;;-142.53;100.00
4133;BME280;2080;51.038;7.008;2022-08-19T02:18:59;75027.03;;;-142.53;100.00
4133;BME280;2080;51.038;7.008;2022-08-19T02:21:28;75028.97;;;-142.53;100.00
4133;BME280;2080;51.038;7.008;2022-08-19T02:23:54;75027.03;;;-142.53;100.00
4133;BME280;2080;51.038;7.008;2022-08-19T02:26:20;75027.03;;;-142.53;100.00
4133;BME280;2080;51.038;7.008;2022-08-19T02:28:46;75019.25;;;-142.53;100.00
4133;BME280;2080;51.038;7.008;2022-08-19T02:31:16;75023.13;;;-142.53;100.00
4133;BME280;2080;51.038;7.008;2022-08-19T02:33:42;75027.03;;;-142.53;100.00
4133;BME280;2080;51.038;7.008;2022-08-19T02:36:08;75028.97;;;-142.53;100.00
4133;BME280;2080;51.038;7.008;2022-08-19T02:38:34;75036.72;;;-142.53;100.00
4133;BME280;2080;51.038;7.008;2022-08-19T02:41:08;75042.56;;;-142.53;100.00
4133;BME280;2080;51.038;7.008;2022-08-19T02:43:36;75063.91;;;-142.53;100.00
4133;BME280;2080;51.038;7.008;2022-08-19T02:46:14;75069.75;;;-142.53;100.00
4133;BME280;2080;51.038;7.008;2022-08-19T02:48:40;75061.97;;;-142.53;100.00
4133;BME280;2080;51.038;7.008;2022-08-19T02:51:05;75073.63;;;-142.53;100.00
4133;BME280;2080;51.038;7.008;2022-08-19T02:53:33;75073.63;;;-142.53;100.00
4133;BME280;2080;51.038;7.008;2022-08-19T02:55:58;75073.63;;;-142.53;100.00
4133;BME280;2080;51.038;7.008;2022-08-19T02:58:26;75077.50;;;-142.53;100.00
4133;BME280;2080;51.038;7.008;2022-08-19T03:00:54;75081.38;;;-142.53;100.00
4133;BME280;2080;51.038;7.008;2022-08-19T03:03:22;75096.91;;;-142.53;100.00
4133;BME280;2080;51.038;7.008;2022-08-19T03:06:01;75087.22;;;-142.53;100.00
4133;BME280;2080;51.038;7.008;2022-08-19T03:08:29;75083.31;;;-142.53;100.00
4133;BME280;2080;51.038;7.008;2022-08-19T03:10:55;75077.50;;;-142.53;100.00
4133;BME280;2080;51.038;7.008;2022-08-19T03:13:21;75073.63;;;-142.53;100.00
4133;BME280;2080;51.038;7.008;2022-08-19T03:15:47;75069.75;;;-142.53;100.00
4133;BME280;2080;51.038;7.008;2022-08-19T03:18:13;75081.38;;;-142.53;100.00
4133;BME280;2080;51.038;7.008;2022-08-19T03:20:43;75081.38;;;-142.53;100.00
4133;BME280;2080;51.038;7.008;2022-08-19T03:23:12;75083.31;;;-142.53;100.00
4133;BME280;2080;51.038;7.008;2022-08-19T03:25:43;75085.28;;;-142.53;100.00
4133;BME280;2080;51.038;7.008;2022-08-19T03:28:10;75085.28;;;-142.53;100.00
4133;BME280;2080;51.038;7.008;2022-08-19T03:30:37;75096.91;;;-142.53;100.00
4133;BME280;2080;51.038;7.008;2022-08-19T03:33:02;75102.75;;;-142.53;100.00
4133;BME280;2080;51.038;7.008;2022-08-19T03:35:28;75108.56;;;-142.53;100.00
4133;BME280;2080;51.038;7.008;2022-08-19T03:37:53;75108.56;;;-142.53;100.00
4133;BME280;2080;51.038;7.008;2022-08-19T03:40:19;75100.81;;;-142.53;100.00
4133;BME280;2080;51.038;7.008;2022-08-19T03:42:47;75089.16;;;-142.53;100.00
4133;BME280;2080;51.038;7.008;2022-08-19T03:45:15;75089.16;;;-142.53;100.00
4133;BME280;2080;51.038;7.008;2022-08-19T03:47:43;75073.63;;;-142.53;100.00
4133;BME280;2080;51.038;7.008;2022-08-19T03:50:11;75077.50;;;-142.53;100.00
4133;BME280;2080;51.038;7.008;2022-08-19T03:52:36;75085.28;;;-142.53;100.00
4133;BME280;2080;51.038;7.008;2022-08-19T03:55:05;75089.16;;;-142.53;100.00
4133;BME280;2080;51.038;7.008;2022-08-19T03:57:30;75067.78;;;-142.53;100.00
4133;BME280;2080;51.038;7.008;2022-08-19T03:59:56;75042.56;;;-142.53;100.00
4133;BME280;2080;51.038;7.008;2022-08-19T04:02:21;75034.78;;;-142.53;100.00
4133;BME280;2080;51.038;7.008;2022-08-19T04:04:49;75030.91;;;-142.53;100.00
4133;BME280;2080;51.038;7.008;2022-08-19T04:07:20;75028.97;;;-142.53;100.00
4133;BME280;2080;51.038;7.008;2022-08-19T04:09:46;75038.66;;;-142.53;100.00
4133;BME280;2080;51.038;7.008;2022-08-19T04:12:13;75042.56;;;-142.53;100.00
4133;BME280;2080;51.038;7.008;2022-08-19T04:14:40;75046.44;;;-142.53;100.00
4133;BME280;2080;51.038;7.008;2022-08-19T04:17:08;75044.50;;;-142.53;100.00
4133;BME280;2080;51.038;7.008;2022-08-19T04:19:35;75046.44;;;-142.53;100.00
4133;BME280;2080;51.038;7.008;2022-08-19T04:22:03;75044.50;;;-142.53;100.00
4133;BME280;2080;51.038;7.008;2022-08-19T04:24:29;75044.50;;;-142.53;100.00
4133;BME280;2080;51.038;7.008;2022-08-19T04:26:54;75054.19;;;-142.53;100.00
4133;BME280;2080;51.038;7.008;2022-08-19T04:29:23;75065.84;;;-142.53;100.00
4133;BME280;2080;51.038;7.008;2022-08-19T04:31:50;75065.84;;;-142.53;100.00
4133;BME280;2080;51.038;7.008;2022-08-19T04:34:18;75065.84;;;-142.53;100.00
4133;BME280;2080;51.038;7.008;2022-08-19T04:36:48;75073.63;;;-142.53;100.00
4133;BME280;2080;51.038;7.008;2022-08-19T04:39:21;75067.78;;;-142.53;100.00
4133;BME280;2080;51.038;7.008;2022-08-19T04:41:47;75065.84;;;-142.53;100.00
4133;BME280;2080;51.038;7.008;2022-08-19T04:44:32;75063.91;;;-142.53;100.00
4133;BME280;2080;51.038;7.008;2022-08-19T04:46:58;75058.09;;;-142.53;100.00
4133;BME280;2080;51.038;7.008;2022-08-19T04:49:26;75054.19;;;-142.53;100.00
4133;BME280;2080;51.038;7.008;2022-08-19T04:51:53;75040.63;;;-142.53;100.00
4133;BME280;2080;51.038;7.008;2022-08-19T04:54:23;75042.56;;;-142.53;100.00
4133;BME280;2080;51.038;7.008;2022-08-19T04:56:53;75040.63;;;-142.53;100.00
4133;BME280;2080;51.038;7.008;2022-08-19T04:59:21;75034.78;;;-142.53;100.00
4133;BME280;2080;51.038;7.008;2022-08-19T05:01:47;75030.91;;;-142.53;100.00
4133;BME280;2080;51.038;7.008;2022-08-19T05:04:18;75027.03;;;-142.53;100.00
4133;BME280;2080;51.038;7.008;2022-08-19T05:06:46;75030.91;;;-142.53;100.00
4133;BME280;2080;51.038;7.008;2022-08-19T05:09:12;75034.78;;;-142.53;100.00
4133;BME280;2080;51.038;7.008;2022-08-19T05:11:37;75019.25;;;-142.53;100.00
4133;BME280;2080;51.038;7.008;2022-08-19T05:14:07;75021.19;;;-142.53;100.00
4133;BME280;2080;51.038;7.008;2022-08-19T05:16:34;74997.91;;;-142.53;100.00
4133;BME280;2080;51.038;7.008;2022-08-19T05:19:00;74984.31;;;-142.53;100.00
4133;BME280;2080;51.038;7.008;2022-08-19T05:21:46;74982.38;;;-142.53;100.00
4133;BME280;2080;51.038;7.008;2022-08-19T05:24:31;74984.31;;;-142.53;100.00
4133;BME280;2080;51.038;7.008;2022-08-19T05:27:01;74978.47;;;-142.53;100.00
4133;BME280;2080;51.038;7.008;2022-08-19T05:29:28;74988.19;;;-142.53;100.00
4133;BME280;2080;51.038;7.008;2022-08-19T05:31:54;74976.53;;;-142.53;100.00
4133;BME280;2080;51.038;7.008;2022-08-19T05:34:25;74964.88;;;-142.53;100.00
4133;BME280;2080;51.038;7.008;2022-08-19T05:36:53;74959.06;;;-142.53;100.00
4133;BME280;2080;51.038;7.008;2022-08-19T05:39:21;74949.38;;;-142.53;100.00
4133;BME280;2080;51.038;7.008;2022-08-19T05:41:55;74929.94;;;-142.53;100.00
4133;BME280;2080;51.038;7.008;2022-08-19T05:44:25;74908.59;;;-142.53;100.00
4133;BME280;2080;51.038;7.008;2022-08-19T05:46:51;74891.13;;;-142.53;100.00
4133;BME280;2080;51.038;7.008;2022-08-19T05:49:22;74875.59;;;-142.53;100.00
4133;BME280;2080;51.038;7.008;2022-08-19T05:51:48;74867.81;;;-142.53;100.00
4133;BME280;2080;51.038;7.008;2022-08-19T05:54:13;74860.06;;;-142.53;100.00
4133;BME280;2080;51.038;7.008;2022-08-19T05:56:40;74863.94;;;-142.53;100.00
4133;BME280;2080;51.038;7.008;2022-08-19T05:59:11;74867.81;;;-142.53;100.00
4133;BME280;2080;51.038;7.008;2022-08-19T06:01:42;74862.00;;;-142.53;100.00
4133;BME280;2080;51.038;7.008;2022-08-19T06:04:10;74860.06;;;-142.53;100.00
4133;BME280;2080;51.038;7.008;2022-08-19T06:06:36;74860.06;;;-142.53;100.00
4133;BME280;2080;51.038;7.008;2022-08-19T06:09:04;74850.34;;;-142.53;100.00
4133;BME280;2080;51.038;7.008;2022-08-19T06:11:45;74848.41;;;-142.53;100.00
4133;BME280;2080;51.038;7.008;2022-08-19T06:14:18;74836.75;;;-142.53;100.00
4133;BME280;2080;51.038;7.008;2022-08-19T06:16:46;74825.09;;;-142.53;100.00
4133;BME280;2080;51.038;7.008;2022-08-19T06:19:15;74817.34;;;-142.53;100.00
4133;BME280;2080;51.038;7.008;2022-08-19T06:21:43;74811.50;;;-142.53;100.00
4133;BME280;2080;51.038;7.008;2022-08-19T06:24:13;74794.03;;;-142.53;100.00
4133;BME280;2080;51.038;7.008;2022-08-19T06:26:44;74790.16;;;-142.53;100.00
4133;BME280;2080;51.038;7.008;2022-08-19T06:29:14;74786.28;;;-142.53;100.00
4133;BME280;2080;51.038;7.008;2022-08-19T06:31:46;74788.22;;;-142.53;100.00
4133;BME280;2080;51.038;7.008;2022-08-19T06:34:15;74762.97;;;-142.53;100.00
4133;BME280;2080;51.038;7.008;2022-08-19T06:36:44;74762.97;;;-142.53;100.00
4133;BME280;2080;51.038;7.008;2022-08-19T06:39:15;74755.22;;;-142.53;100.00
4133;BME280;2080;51.038;7.008;2022-08-19T06:41:45;74741.63;;;-142.53;100.00
4133;BME280;2080;51.038;7.008;2022-08-19T06:44:12;74739.69;;;-142.53;100.00
4133;BME280;2080;51.038;7.008;2022-08-19T06:46:41;74743.56;;;-142.53;100.00
4133;BME280;2080;51.038;7.008;2022-08-19T06:49:07;74735.81;;;-142.53;100.00
4133;BME280;2080;51.038;7.008;2022-08-19T06:51:35;74743.56;;;-142.53;100.00
4133;BME280;2080;51.038;7.008;2022-08-19T06:54:03;74728.03;;;-142.53;100.00
4133;BME280;2080;51.038;7.008;2022-08-19T06:56:31;74718.31;;;-142.53;100.00
4133;BME280;2080;51.038;7.008;2022-08-19T06:59:10;74710.56;;;-142.53;100.00
4133;BME280;2080;51.038;7.008;2022-08-19T07:01:41;74706.69;;;-142.53;100.00
4133;BME280;2080;51.038;7.008;2022-08-19T07:04:08;74704.75;;;-142.53;100.00
4133;BME280;2080;51.038;7.008;2022-08-19T07:06:35;74708.63;;;-142.53;100.00
4133;BME280;2080;51.038;7.008;2022-08-19T07:09:03;74720.28;;;-142.53;100.00
4133;BME280;2080;51.038;7.008;2022-08-19T07:11:30;74712.50;;;-142.53;100.00
4133;BME280;2080;51.038;7.008;2022-08-19T07:13:56;74708.63;;;-142.53;100.00
4133;BME280;2080;51.038;7.008;2022-08-19T07:16:21;74696.97;;;-142.53;100.00
4133;BME280;2080;51.038;7.008;2022-08-19T07:18:50;74693.09;;;-142.53;100.00
4133;BME280;2080;51.038;7.008;2022-08-19T07:21:19;74685.31;;;-142.53;100.00
4133;BME280;2080;51.038;7.008;2022-08-19T07:23:45;74677.56;;;-142.53;100.00
4133;BME280;2080;51.038;7.008;2022-08-19T07:26:24;74696.97;;;-142.53;100.00
4133;BME280;2080;51.038;7.008;2022-08-19T07:28:53;74689.22;;;-142.53;100.00
4133;BME280;2080;51.038;7.008;2022-08-19T07:31:23;74704.75;;;-142.53;100.00
4133;BME280;2080;51.038;7.008;2022-08-19T07:33:50;74679.50;;;-142.53;100.00
4133;BME280;2080;51.038;7.008;2022-08-19T07:36:20;74663.97;;;-142.53;100.00
4133;BME280;2080;51.038;7.008;2022-08-19T07:38:48;74644.56;;;-142.53;100.00
4133;BME280;2080;51.038;7.008;2022-08-19T07:41:18;74646.50;;;-142.53;100.00
4133;BME280;2080;51.038;7.008;2022-08-19T07:43:47;74646.50;;;-142.53;100.00
4133;BME280;2080;51.038;7.008;2022-08-19T07:46:16;74648.44;;;-142.53;100.00
4133;BME280;2080;51.038;7.008;2022-08-19T07:48:44;74642.63;;;-142.53;100.00
4133;BME280;2080;51.038;7.008;2022-08-19T07:51:15;74630.97;;;-142.53;100.00
4133;BME280;2080;51.038;7.008;2022-08-19T07:53:41;74630.97;;;-142.53;100.00
4133;BME280;2080;51.038;7.008;2022-08-19T07:56:11;74623.19;;;-142.53;100.00
4133;BME280;2080;51.038;7.008;2022-08-19T07:58:41;74623.19;;;-142.53;100.00
4133;BME280;2080;51.038;7.008;2022-08-19T08:01:12;74638.72;;;-142.53;100.00
4133;BME280;2080;51.038;7.008;2022-08-19T08:03:38;74636.78;;;-142.53;100.00
4133;BME280;2080;51.038;7.008;2022-08-19T08:06:22;74613.50;;;-142.53;100.00
4133;BME280;2080;51.038;7.008;2022-08-19T08:09:09;74627.09;;;-142.53;100.00
4133;BME280;2080;51.038;7.008;2022-08-19T08:11:58;74619.31;;;-142.53;100.00
4133;BME280;2080;51.038;7.008;2022-08-19T08:14:35;74597.97;;;-142.53;100.00
4133;BME280;2080;51.038;7.008;2022-08-19T08:17:04;74580.50;;;-142.53;100.00
4133;BME280;2080;51.038;7.008;2022-08-19T08:19:30;74584.38;;;-142.53;100.00
4133;BME280;2080;51.038;7.008;2022-08-19T08:21:57;74553.31;;;-142.53;99.39
4133;BME280;2080;51.038;7.008;2022-08-19T08:24:25;74539.72;;;-142.53;97.97
4133;BME280;2080;51.038;7.008;2022-08-19T08:26:51;74524.19;;;-142.53;95.98
4133;BME280;2080;51.038;7.008;2022-08-19T08:29:16;74518.38;;;-142.53;95.14
4133;BME280;2080;51.038;7.008;2022-08-19T08:31:45;74506.72;;;-142.53;94.57
4133;BME280;2080;51.038;7.008;2022-08-19T08:34:12;74512.53;;;-142.53;94.94
4133;BME280;2080;51.038;7.008;2022-08-19T08:36:40;74498.97;;;-142.53;95.61
4133;BME280;2080;51.038;7.008;2022-08-19T08:39:10;74477.59;;;-142.53;94.48
4133;BME280;2080;51.038;7.008;2022-08-19T08:44:21;74448.47;;;-142.53;92.14
4133;BME280;2080;51.038;7.008;2022-08-19T08:46:58;74444.59;;;-142.53;91.58
4133;BME280;2080;51.038;7.008;2022-08-19T08:49:45;74423.25;;;-142.53;91.53
4133;BME280;2080;51.038;7.008;2022-08-19T08:52:19;74398.00;;;-142.53;89.81
4133;BME280;2080;51.038;7.008;2022-08-19T08:54:55;74370.84;;;-142.53;88.52
4133;BME280;2080;51.038;7.008;2022-08-19T08:57:29;74343.66;;;-142.53;87.24
4133;BME280;2080;51.038;7.008;2022-08-19T09:00:00;74316.47;;;-142.53;85.37
4133;BME280;2080;51.038;7.008;2022-08-19T09:02:31;74297.06;;;-142.53;85.01
4133;BME280;2080;51.038;7.008;2022-08-19T09:04:59;74266.00;;;-142.53;83.64
4133;BME280;2080;51.038;7.008;2022-08-19T09:15:45;74149.56;;;-142.53;76.90
4133;BME280;2080;51.038;7.008;2022-08-19T09:18:13;74112.66;;;-142.53;76.19
4133;BME280;2080;51.038;7.008;2022-08-19T09:20:42;74052.50;;;-142.53;74.37
4133;BME280;2080;51.038;7.008;2022-08-19T09:23:07;74009.78;;;-142.53;72.25
4133;BME280;2080;51.038;7.008;2022-08-19T09:25:35;74007.84;;;-142.53;69.94
4133;BME280;2080;51.038;7.008;2022-08-19T09:28:01;74033.09;;;-142.53;70.23
4133;BME280;2080;51.038;7.008;2022-08-19T09:30:40;74042.78;;;-142.53;70.52
4133;BME280;2080;51.038;7.008;2022-08-19T09:33:06;74054.44;;;-142.53;70.93
4133;BME280;2080;51.038;7.008;2022-08-19T09:35:33;74073.84;;;-142.53;71.43
4133;BME280;2080;51.038;7.008;2022-08-19T09:37:59;74083.56;;;-142.53;70.33
4133;BME280;2080;51.038;7.008;2022-08-19T09:40:26;74145.66;;;-142.53;69.63
4133;BME280;2080;51.038;7.008;2022-08-19T09:42:54;74161.19;;;-142.53;68.98
4133;BME280;2080;51.038;7.008;2022-08-19T09:45:21;74165.06;;;-142.53;69.50
4133;BME280;2080;51.038;7.008;2022-08-19T09:47:48;74155.38;;;-142.53;68.32
4133;BME280;2080;51.038;7.008;2022-08-19T09:50:14;74221.38;;;-142.53;71.97
4133;BME280;2080;51.038;7.008;2022-08-19T09:52:41;74184.50;;;-142.53;72.29
4133;BME280;2080;51.038;7.008;2022-08-19T09:55:09;74159.25;;;-142.53;71.30
4133;BME280;2080;51.038;7.008;2022-08-19T09:57:41;74137.91;;;-142.53;69.59
4133;BME280;2080;51.038;7.008;2022-08-19T10:00:08;74099.09;;;-142.53;68.72
4133;BME280;2080;51.038;7.008;2022-08-19T10:02:34;74068.03;;;-142.53;66.21
4133;BME280;2080;51.038;7.008;2022-08-19T10:05:00;74068.03;;;-142.53;63.59
4133;BME280;2080;51.038;7.008;2022-08-19T10:07:44;74079.66;;;-142.53;62.50
4133;BME280;2080;51.038;7.008;2022-08-19T10:10:10;74068.03;;;-142.53;61.51
4133;BME280;2080;51.038;7.008;2022-08-19T10:12:36;74062.19;;;-142.53;61.13
4133;BME280;2080;51.038;7.008;2022-08-19T10:15:03;74052.50;;;-142.53;59.90
4133;BME280;2080;51.038;7.008;2022-08-19T10:17:29;74048.63;;;-142.53;56.23
4133;BME280;2080;51.038;7.008;2022-08-19T10:19:56;74087.44;;;-142.53;57.75
4133;BME280;2080;51.038;7.008;2022-08-19T10:22:24;74091.31;;;-142.53;58.34
4133;BME280;2080;51.038;7.008;2022-08-19T10:24:53;74106.84;;;-142.53;56.48
4133;BME280;2080;51.038;7.008;2022-08-19T10:27:18;74118.50;;;-142.53;54.59
4133;BME280;2080;51.038;7.008;2022-08-19T10:29:46;74186.44;;;-142.53;56.63
4133;BME280;2080;51.038;7.008;2022-08-19T10:32:12;74165.06;;;-142.53;57.99
4133;BME280;2080;51.038;7.008;2022-08-19T10:34:38;74102.97;;;-142.53;57.39
4133;BME280;2080;51.038;7.008;2022-08-19T10:37:08;74048.63;;;-142.53;56.69
4133;BME280;2080;51.038;7.008;2022-08-19T10:39:37;74038.91;;;-142.53;55.63
4133;BME280;2080;51.038;7.008;2022-08-19T10:42:08;73970.97;;;-142.53;54.64
4133;BME280;2080;51.038;7.008;2022-08-19T10:44:37;73912.75;;;-142.53;54.25
4133;BME280;2080;51.038;7.008;2022-08-19T10:47:03;73858.41;;;-142.53;52.19
4133;BME280;2080;51.038;7.008;2022-08-19T10:49:29;73804.06;;;-142.53;50.52
4133;BME280;2080;51.038;7.008;2022-08-19T10:51:56;73776.88;;;-142.53;49.84
4133;BME280;2080;51.038;7.008;2022-08-19T10:54:42;73763.31;;;-142.53;47.77
4133;BME280;2080;51.038;7.008;2022-08-19T10:57:30;73734.19;;;-142.53;48.28
4133;BME280;2080;51.038;7.008;2022-08-19T10:59:55;73741.94;;;-142.53;46.88
4133;BME280;2080;51.038;7.008;2022-08-19T11:02:21;73776.88;;;-142.53;47.16
4133;BME280;2080;51.038;7.008;2022-08-19T11:04:49;73792.41;;;-142.53;47.74
4133;BME280;2080;51.038;7.008;2022-08-19T11:07:20;73790.47;;;-142.53;47.68
4133;BME280;2080;51.038;7.008;2022-08-19T11:09:46;73753.59;;;-142.53;47.25
4133;BME280;2080;51.038;7.008;2022-08-19T11:12:11;73740.00;;;-142.53;45.79
4133;BME280;2080;51.038;7.008;2022-08-19T11:14:39;73707.00;;;-142.53;45.51
4133;BME280;2080;51.038;7.008;2022-08-19T11:17:05;73683.72;;;-142.53;45.30
4133;BME280;2080;51.038;7.008;2022-08-19T11:19:31;73660.44;;;-142.53;44.57
4133;BME280;2080;51.038;7.008;2022-08-19T11:21:59;73675.97;;;-142.53;44.73
4133;BME280;2080;51.038;7.008;2022-08-19T11:24:28;73695.38;;;-142.53;44.54
4133;BME280;2080;51.038;7.008;2022-08-19T11:27:01;73683.72;;;-142.53;44.92
4133;BME280;2080;51.038;7.008;2022-08-19T11:29:27;73697.31;;;-142.53;45.33
4133;BME280;2080;51.038;7.008;2022-08-19T11:31:54;73749.72;;;-142.53;45.49
4133;BME280;2080;51.038;7.008;2022-08-19T11:34:25;73807.94;;;-142.53;46.21
4133;BME280;2080;51.038;7.008;2022-08-19T11:36:55;73924.41;;;-142.53;48.12
4133;BME280;2080;51.038;7.008;2022-08-19T11:39:24;74025.31;;;-142.53;49.76
4133;BME280;2080;51.038;7.008;2022-08-19T11:41:52;74007.84;;;-142.53;50.45
4133;BME280;2080;51.038;7.008;2022-08-19T11:44:22;73982.63;;;-142.53;50.92
4133;BME280;2080;51.038;7.008;2022-08-19T11:46:48;73969.03;;;-142.53;50.03
4133;BME280;2080;51.038;7.008;2022-08-19T11:49:16;73959.34;;;-142.53;49.06
4133;BME280;2080;51.038;7.008;2022-08-19T11:51:43;73982.63;;;-142.53;50.00
4133;BME280;2080;51.038;7.008;2022-08-19T11:54:13;73967.09;;;-142.53;49.97
4133;BME280;2080;51.038;7.008;2022-08-19T11:56:40;73963.22;;;-142.53;49.89
4133;BME280;2080;51.038;7.008;2022-08-19T11:59:08;73970.97;;;-142.53;50.09
4133;BME280;2080;51.038;7.008;2022-08-19T12:01:33;74002.03;;;-142.53;50.68
4133;BME280;2080;51.038;7.008;2022-08-19T12:04:02;74003.97;;;-142.53;51.13
4133;BME280;2080;51.038;7.008;2022-08-19T12:06:33;73974.84;;;-142.53;50.63
4133;BME280;2080;51.038;7.008;2022-08-19T12:09:05;74007.84;;;-142.53;50.69
4133;BME280;2080;51.038;7.008;2022-08-19T12:11:37;74025.31;;;-142.53;50.54
4133;BME280;2080;51.038;7.008;2022-08-19T12:14:06;74003.97;;;-142.53;50.46
4133;BME280;2080;51.038;7.008;2022-08-19T12:16:36;73986.50;;;-142.53;49.35
4133;BME280;2080;51.038;7.008;2022-08-19T12:19:04;74000.09;;;-142.53;49.46
4133;BME280;2080;51.038;7.008;2022-08-19T12:21:34;73980.69;;;-142.53;48.53
4133;BME280;2080;51.038;7.008;2022-08-19T12:24:01;73965.16;;;-142.53;47.48
4133;BME280;2080;51.038;7.008;2022-08-19T12:26:29;73939.91;;;-142.53;47.87
4133;BME280;2080;51.038;7.008;2022-08-19T12:28:56;73967.09;;;-142.53;46.36
4133;BME280;2080;51.038;7.008;2022-08-19T12:31:24;73901.09;;;-142.53;45.52
4133;BME280;2080;51.038;7.008;2022-08-19T12:33:50;73870.03;;;-142.53;45.65
4133;BME280;2080;51.038;7.008;2022-08-19T12:36:17;73870.03;;;-142.53;44.51
4133;BME280;2080;51.038;7.008;2022-08-19T12:38:43;73844.81;;;-142.53;44.05
4133;BME280;2080;51.038;7.008;2022-08-19T12:41:14;73823.47;;;-142.53;44.38
4133;BME280;2080;51.038;7.008;2022-08-19T12:43:40;73831.22;;;-142.53;43.86
4133;BME280;2080;51.038;7.008;2022-08-19T12:46:07;73835.13;;;-142.53;43.82
4133;BME280;2080;51.038;7.008;2022-08-19T12:48:38;73852.59;;;-142.53;44.43
4133;BME280;2080;51.038;7.008;2022-08-19T12:51:09;73897.22;;;-142.53;44.82
4133;BME280;2080;51.038;7.008;2022-08-19T12:53:37;73926.34;;;-142.53;46.04
4133;BME280;2080;51.038;7.008;2022-08-19T12:56:03;73932.16;;;-142.53;45.87
4133;BME280;2080;51.038;7.008;2022-08-19T12:58:29;73916.63;;;-142.53;45.23
4133;BME280;2080;51.038;7.008;2022-08-19T13:00:54;73872.00;;;-142.53;43.89
4133;BME280;2080;51.038;7.008;2022-08-19T13:03:22;73870.03;;;-142.53;44.17
4133;BME280;2080;51.038;7.008;2022-08-19T13:05:54;73833.16;;;-142.53;44.11
4133;BME280;2080;51.038;7.008;2022-08-19T13:08:22;73815.69;;;-142.53;43.21
4133;BME280;2080;51.038;7.008;2022-08-19T13:10:48;73844.81;;;-142.53;42.99